Aeroporto :
LOGIN :

Iscrizione | Disclaimer

   EN    FR    IT 

 










Sommario :    VFR   VFR Marginale   IFR   IFR Intensivo   IFR Molto Intensivo
Visibilità : 
Base nubi : 
>= 8 km
>= 3000ft
5 / 8 km
1000 / 3000 ft
1500m / 5 km
500 / 1000 ft
800 / 1500m
200 / 500 ft
< 800m
< 200 ft
Simboli :   Temporali  Nebbia  Neve Forte  Precipitazioni Forti  Vento > 20 kt
SIGMETs :   Varie  Temporali  Ghiacco  Turbolenza  Onda orograficha  Ceneri Vulcaniche






- Altitudine del aeroporto : 141 ft
- Codice IATA : SKS


EKSP - Srydstrup Vojens

ULTIMO METAR :
  • 122050Z 29009KT 9999 FEW035 11/07 Q1019

METARs OBSOLETI :
  • 122020Z 29009KT 9999 FEW035 12/07 Q1019
  • 121950Z 30014KT 9999 FEW035 12/06 Q1019
  • 121920Z 31012KT 9999 FEW035 SCT050 13/07 Q1018
  • 121850Z 30014KT 9999 FEW035 SCT050 13/07 Q1018
  • 121820Z 30017KT 9999 FEW035 14/07 Q1018

TAF TAF EKSP
Valido dal 12 a 21 ore il 13 a 21 ore UTC


122008Z 1221/1321 30012KT 9999 SCT025
TEMPO 1221/1301 31015G25KT
TEMPO 1306/1316 31012G22KT
BECMG 1317/1320 25008KT



MetMap, La meteo Aeronautica in un colpo d'occhio ! - Copyright ORBIFLY Dicembre 2007 - Disclaimer

ORBIFLY MET'MAP TEAM :

Programmazione e sviluppo : Alexandra Zaïnal
Concezione : Baudouin d'Aumeries
Aiuto per la programmazione : Marc-Olivier Méhu
Supporto tecnico e logistico : Manuel Goepfert
Aiuto per la traduzione : Arnaldo La Scala

Contatto : metmap@orbifly.com




FONTI E CREDITI :

   NOAA